createdAt,value
2022-11-24T00:00:47.000Z,11.2
2022-11-24T00:02:03.000Z,11
2022-11-24T00:03:19.000Z,10.1
2022-11-24T00:04:35.724Z,10.8
2022-11-24T00:05:51.000Z,11.1
2022-11-24T00:07:07.000Z,10.7
2022-11-24T00:08:23.000Z,10.2
2022-11-24T00:09:40.000Z,11.3
2022-11-24T00:10:56.000Z,10.8
2022-11-24T00:12:12.000Z,10.4
2022-11-24T00:13:28.000Z,10.6
2022-11-24T00:14:44.000Z,10.3
2022-11-24T00:16:00.000Z,10.4
2022-11-24T00:17:16.202Z,10.6
2022-11-24T00:18:32.354Z,12.1
2022-11-24T00:19:48.000Z,11.4
2022-11-24T00:21:04.000Z,10.6
2022-11-24T00:22:20.799Z,11.4
2022-11-24T00:23:36.000Z,10.8
2022-11-24T00:24:53.088Z,11.5
2022-11-24T00:26:09.000Z,11.8
2022-11-24T00:27:25.000Z,11.9
2022-11-24T00:28:41.532Z,11.9
2022-11-24T00:29:57.000Z,11.3
2022-11-24T00:31:13.842Z,11.1
2022-11-24T00:32:29.969Z,11.5
2022-11-24T00:33:44.000Z,11.9
2022-11-24T00:35:01.000Z,12.4
2022-11-24T00:36:17.000Z,12
2022-11-24T00:37:33.000Z,11.4
2022-11-24T00:38:49.000Z,11.7
2022-11-24T00:40:05.000Z,12
2022-11-24T00:41:21.000Z,13.2
2022-11-24T00:42:37.000Z,12.6
2022-11-24T00:43:54.000Z,12.3
2022-11-24T00:45:10.000Z,12.2
2022-11-24T00:46:26.000Z,11.4
2022-11-24T00:47:42.000Z,12
2022-11-24T00:48:58.913Z,12.3
2022-11-24T00:50:14.056Z,12
2022-11-24T00:51:29.000Z,12.5
2022-11-24T00:52:46.000Z,12.2
2022-11-24T00:54:02.501Z,12.2
2022-11-24T00:55:18.693Z,12.7
2022-11-24T00:56:34.807Z,12.8
2022-11-24T00:57:50.000Z,12.5
2022-11-24T00:59:06.000Z,12.9
2022-11-24T01:00:23.239Z,12.9
2022-11-24T01:01:39.000Z,13.4
2022-11-24T01:02:55.539Z,13.3
2022-11-24T01:04:11.760Z,13.8
2022-11-24T01:05:27.000Z,14
2022-11-24T01:06:42.000Z,13.5
2022-11-24T01:07:58.000Z,13.9
2022-11-24T01:09:15.293Z,13
2022-11-24T01:10:31.000Z,12.3
2022-11-24T01:11:47.000Z,12.8
2022-11-24T01:13:03.000Z,12.8
2022-11-24T01:14:18.897Z,13.5
2022-11-24T01:15:34.000Z,13.4
2022-11-24T01:16:50.000Z,14.2
2022-11-24T01:18:07.000Z,13.1
2022-11-24T01:19:23.000Z,13.3
2022-11-24T01:20:39.000Z,14.4
2022-11-24T01:21:55.000Z,12.9
2022-11-24T01:23:11.000Z,12.7
2022-11-24T01:24:27.000Z,13.1
2022-11-24T01:25:43.000Z,13.7
2022-11-24T01:27:00.000Z,12.8
2022-11-24T01:28:16.553Z,13.4
2022-11-24T01:29:32.659Z,14
2022-11-24T01:30:47.000Z,13.7
2022-11-24T01:32:03.000Z,14
2022-11-24T01:33:19.000Z,14.1
2022-11-24T01:34:36.000Z,14.3
2022-11-24T01:35:52.000Z,14.4
2022-11-24T01:37:08.000Z,15.1
2022-11-24T01:38:24.000Z,13.7
2022-11-24T01:39:40.000Z,14.9
2022-11-24T01:40:56.000Z,14.3
2022-11-24T01:42:12.000Z,14.4
2022-11-24T01:43:29.000Z,13.9
2022-11-24T01:44:45.000Z,13.7
2022-11-24T01:46:01.000Z,14.4
2022-11-24T01:47:16.728Z,14.8
2022-11-24T01:48:32.000Z,15
2022-11-24T01:49:49.027Z,14.4
2022-11-24T01:51:04.000Z,14.6
2022-11-24T01:52:21.000Z,14.5
2022-11-24T01:53:37.000Z,14.6
2022-11-24T01:54:53.000Z,14.8
2022-11-24T01:56:09.756Z,14.7
2022-11-24T01:57:25.000Z,16
2022-11-24T01:58:42.066Z,15.1
2022-11-24T01:59:58.197Z,14.5
2022-11-24T02:01:14.000Z,14.5
2022-11-24T02:02:30.000Z,15.3
2022-11-24T02:03:45.000Z,15.7
2022-11-24T02:05:01.000Z,16.3
2022-11-24T02:06:17.000Z,16.4
2022-11-24T02:07:34.099Z,15.7
2022-11-24T02:08:50.254Z,15.5
2022-11-24T02:10:06.000Z,15.8
2022-11-24T02:11:22.000Z,15.9
2022-11-24T02:12:38.000Z,17.2
2022-11-24T02:13:54.000Z,15.6
2022-11-24T02:15:10.000Z,17.5
2022-11-24T02:16:27.126Z,17
2022-11-24T02:17:43.000Z,17.7
2022-11-24T02:18:59.000Z,17.5
2022-11-24T02:20:14.000Z,17.1
2022-11-24T02:21:30.000Z,16.6
2022-11-24T02:22:46.000Z,16.7
2022-11-24T02:24:02.000Z,16.7
2022-11-24T02:25:18.000Z,18
2022-11-24T02:26:35.315Z,17.6
2022-11-24T02:27:51.000Z,17.5
2022-11-24T02:29:07.000Z,17.3
2022-11-24T02:30:23.000Z,18.5
2022-11-24T02:31:39.000Z,17.3
2022-11-24T02:32:55.000Z,16.9
2022-11-24T02:34:12.197Z,17
2022-11-24T02:35:28.000Z,17.8
2022-11-24T02:36:43.000Z,17.6
2022-11-24T02:37:59.000Z,18.8
2022-11-24T02:39:15.000Z,18.2
2022-11-24T02:40:31.965Z,17.4
2022-11-24T02:41:47.000Z,18.1
2022-11-24T02:43:04.253Z,18.7
2022-11-24T02:44:20.386Z,19.6
2022-11-24T02:45:36.000Z,17.3
2022-11-24T02:46:52.000Z,17.9
2022-11-24T02:48:08.825Z,18.8
2022-11-24T02:49:24.000Z,19.3
2022-11-24T02:50:40.000Z,18.1
2022-11-24T02:51:57.000Z,19.1
2022-11-24T02:53:12.000Z,19.2
2022-11-24T02:54:28.000Z,19.1
2022-11-24T02:55:44.738Z,19.7
2022-11-24T02:57:00.000Z,20.4
2022-11-24T02:58:17.167Z,20.7
2022-11-24T02:59:32.000Z,19.9
2022-11-24T03:00:49.000Z,19.7
2022-11-24T03:02:05.466Z,20
2022-11-24T03:03:21.000Z,18.9
2022-11-24T03:04:37.000Z,19.7
2022-11-24T03:05:53.000Z,19.6
2022-11-24T03:07:09.000Z,19.5
2022-11-24T03:08:25.000Z,19.6
2022-11-24T03:09:41.000Z,19.5
2022-11-24T03:10:57.000Z,19.9
2022-11-24T03:12:13.000Z,20
2022-11-24T03:13:29.000Z,19.6
2022-11-24T03:14:45.000Z,20.4
2022-11-24T03:16:02.103Z,20.4
2022-11-24T03:17:18.000Z,20.3
2022-11-24T03:18:34.000Z,20.9
2022-11-24T03:19:50.537Z,20.9
2022-11-24T03:21:06.000Z,20.7
2022-11-24T03:22:22.000Z,21.3
2022-11-24T03:23:38.000Z,21
2022-11-24T03:24:55.141Z,20.8
2022-11-24T03:26:10.000Z,21.2
2022-11-24T03:27:26.000Z,21.8
2022-11-24T03:28:42.000Z,20.5
2022-11-24T03:29:58.000Z,20.3
2022-11-24T03:31:14.000Z,21.5
2022-11-24T03:32:31.023Z,20.4
2022-11-24T03:33:46.000Z,21
2022-11-24T03:35:03.000Z,21.3
2022-11-24T03:36:19.000Z,21.5
2022-11-24T03:37:35.000Z,22.8
2022-11-24T03:38:51.811Z,22.4
2022-11-24T03:40:07.000Z,21.9
2022-11-24T03:41:23.000Z,22.6
2022-11-24T03:42:38.000Z,22.6
2022-11-24T03:43:55.000Z,22.4
2022-11-24T03:45:11.508Z,23
2022-11-24T03:46:27.000Z,22.2
2022-11-24T03:47:43.809Z,23.5
2022-11-24T03:49:00.053Z,23.6
2022-11-24T03:50:15.000Z,24.1
2022-11-24T03:51:32.000Z,22.9
2022-11-24T03:52:48.000Z,23.7
2022-11-24T03:54:04.000Z,23.1
2022-11-24T03:55:20.000Z,23.3
2022-11-24T03:56:36.830Z,23.3
2022-11-24T03:57:52.989Z,22.9
2022-11-24T03:59:07.000Z,24.3
2022-11-24T04:00:24.000Z,25.8
2022-11-24T04:01:40.000Z,23.6
2022-11-24T04:02:56.000Z,23.6
2022-11-24T04:04:12.741Z,24.7
2022-11-24T04:05:28.875Z,22.5
2022-11-24T04:06:45.042Z,22.7
2022-11-24T04:08:00.000Z,22.6
2022-11-24T04:09:17.328Z,22.7
2022-11-24T04:10:33.000Z,23.5
2022-11-24T04:11:49.613Z,24.2
2022-11-24T04:13:05.761Z,25.3
2022-11-24T04:14:21.895Z,24.6
2022-11-24T04:15:36.000Z,24.4
2022-11-24T04:16:52.000Z,25.1
2022-11-24T04:18:09.355Z,25.2
2022-11-24T04:19:25.000Z,23.4
2022-11-24T04:20:41.000Z,24.8
2022-11-24T04:21:57.794Z,23.4
2022-11-24T04:23:13.000Z,25
2022-11-24T04:24:29.000Z,24.9
2022-11-24T04:25:45.000Z,25.5
2022-11-24T04:27:02.000Z,24.9
2022-11-24T04:28:18.000Z,23.9
2022-11-24T04:29:34.656Z,25
2022-11-24T04:30:50.000Z,24.3
2022-11-24T04:32:05.000Z,24.7
2022-11-24T04:33:21.000Z,24.5
2022-11-24T04:34:38.000Z,25
2022-11-24T04:35:54.404Z,25.2
2022-11-24T04:37:10.000Z,25
2022-11-24T04:38:26.000Z,26.1
2022-11-24T04:39:42.000Z,26.3
2022-11-24T04:40:58.000Z,25
2022-11-24T04:42:14.000Z,24.5
2022-11-24T04:43:31.000Z,24.2
2022-11-24T04:44:47.000Z,25.7
2022-11-24T04:46:03.575Z,25.3
2022-11-24T04:47:19.729Z,25.9
2022-11-24T04:48:34.000Z,26.3
2022-11-24T04:49:51.026Z,25.7
2022-11-24T04:51:07.167Z,24.3
2022-11-24T04:52:23.312Z,25.1
2022-11-24T04:53:39.000Z,25.1
2022-11-24T04:54:55.000Z,27
2022-11-24T04:56:11.761Z,24.6
2022-11-24T04:57:27.000Z,25.6
2022-11-24T04:58:44.058Z,24.7
2022-11-24T05:00:00.192Z,26.7
2022-11-24T05:01:16.000Z,25.5
2022-11-24T05:02:32.000Z,26.1
2022-11-24T05:03:48.000Z,24.8
2022-11-24T05:05:03.000Z,25.7
2022-11-24T05:06:19.000Z,25.5
2022-11-24T05:07:35.000Z,26.2
2022-11-24T05:08:52.000Z,25.6
2022-11-24T05:10:08.000Z,26.7
2022-11-24T05:11:24.000Z,27.7
2022-11-24T05:12:40.000Z,27.4
2022-11-24T05:13:56.000Z,25.9
2022-11-24T05:15:12.000Z,27
2022-11-24T05:16:28.000Z,27.3
2022-11-24T05:17:45.000Z,27.9
2022-11-24T05:19:01.392Z,26.3
2022-11-24T05:20:17.545Z,28.4
2022-11-24T05:21:32.000Z,27.4
2022-11-24T05:22:48.862Z,28.3
2022-11-24T05:24:04.993Z,27.3
2022-11-24T05:25:20.000Z,27.3
2022-11-24T05:26:37.000Z,26.6
2022-11-24T05:27:53.000Z,26.7
2022-11-24T05:29:08.000Z,27.7
2022-11-24T05:30:24.000Z,26.6
2022-11-24T05:31:40.885Z,26.9
2022-11-24T05:32:56.000Z,27.1
2022-11-24T05:34:12.000Z,27.4
2022-11-24T05:35:29.329Z,27.4
2022-11-24T05:36:45.000Z,27.2
2022-11-24T05:38:01.000Z,28.6
2022-11-24T05:39:17.000Z,25.7
2022-11-24T05:40:33.000Z,26.3
2022-11-24T05:41:49.000Z,26.8
2022-11-24T05:43:06.207Z,27.9
2022-11-24T05:44:22.358Z,26
2022-11-24T05:45:37.510Z,27.4
2022-11-24T05:46:53.648Z,29.4
2022-11-24T05:48:09.788Z,29
2022-11-24T05:49:26.062Z,27.4
2022-11-24T05:50:41.000Z,27.9
2022-11-24T05:51:58.000Z,27.2
2022-11-24T05:53:14.000Z,28.8
2022-11-24T05:54:30.000Z,27.8
2022-11-24T05:55:46.000Z,27.5
2022-11-24T05:57:02.000Z,27.1
2022-11-24T05:58:18.000Z,26.8
2022-11-24T05:59:34.000Z,25.2
2022-11-24T06:00:51.000Z,26.5
2022-11-24T06:02:06.000Z,26.2
2022-11-24T06:03:22.558Z,27.4
2022-11-24T06:04:38.000Z,27.5
2022-11-24T06:05:54.000Z,28
2022-11-24T06:07:10.000Z,30.7
2022-11-24T06:08:27.205Z,30
2022-11-24T06:09:43.000Z,30.1
2022-11-24T06:10:59.000Z,29.3
2022-11-24T06:12:15.000Z,30
2022-11-24T06:13:31.723Z,30.8
2022-11-24T06:14:47.865Z,30.2
2022-11-24T06:16:03.000Z,31.2
2022-11-24T06:17:20.156Z,31
2022-11-24T06:18:35.314Z,29.8
2022-11-24T06:19:51.000Z,29.4
2022-11-24T06:21:07.000Z,29
2022-11-24T06:22:23.000Z,29.1
2022-11-24T06:23:39.903Z,29.8
2022-11-24T06:24:56.057Z,29.4
2022-11-24T06:26:11.000Z,29.8
2022-11-24T06:27:28.346Z,29.7
2022-11-24T06:28:44.486Z,27.7
2022-11-24T06:30:00.000Z,29.7
2022-11-24T06:31:16.000Z,30.6
2022-11-24T06:32:32.000Z,31.8
2022-11-24T06:33:48.000Z,30
2022-11-24T06:35:04.238Z,31.1
2022-11-24T06:36:20.000Z,30.6
2022-11-24T06:37:36.000Z,32.1
2022-11-24T06:38:52.000Z,32.2
2022-11-24T06:40:08.805Z,31.2
2022-11-24T06:41:24.000Z,32.1
2022-11-24T06:42:41.105Z,31.3
2022-11-24T06:43:57.000Z,31.6
2022-11-24T06:45:13.000Z,31.8
2022-11-24T06:46:29.000Z,30.2
2022-11-24T06:47:45.000Z,28.9
2022-11-24T06:49:01.844Z,28.9
2022-11-24T06:50:17.000Z,29.8
2022-11-24T06:51:32.000Z,31.3
2022-11-24T06:52:49.000Z,31.5
2022-11-24T06:54:05.426Z,31.2
2022-11-24T06:55:21.000Z,32.4
2022-11-24T06:56:37.000Z,32
2022-11-24T06:57:53.870Z,31.6
2022-11-24T06:59:09.000Z,32
2022-11-24T07:00:25.000Z,30.7
2022-11-24T07:01:42.303Z,31.2
2022-11-24T07:02:58.000Z,32.7
2022-11-24T07:04:14.000Z,34.1
2022-11-24T07:05:30.000Z,31.1
2022-11-24T07:06:46.000Z,30.7
2022-11-24T07:08:02.046Z,31.9
2022-11-24T07:09:17.000Z,31
2022-11-24T07:10:34.335Z,32.5
2022-11-24T07:11:50.000Z,32.6
2022-11-24T07:13:06.000Z,33
2022-11-24T07:14:22.000Z,32
2022-11-24T07:15:38.000Z,31.7
2022-11-24T07:16:55.076Z,34.9
2022-11-24T07:18:10.000Z,32.5
2022-11-24T07:19:27.000Z,33.3
2022-11-24T07:20:43.000Z,32.8
2022-11-24T07:21:59.000Z,32.4
2022-11-24T07:23:15.000Z,33.8
2022-11-24T07:24:31.952Z,32
2022-11-24T07:25:46.000Z,30.5
2022-11-24T07:27:03.262Z,31.3
2022-11-24T07:28:19.000Z,28.8
2022-11-24T07:29:35.000Z,29.1
2022-11-24T07:30:51.000Z,32.1
2022-11-24T07:32:07.827Z,32.4
2022-11-24T07:33:23.000Z,31.7
2022-11-24T07:34:39.000Z,32.6
2022-11-24T07:35:56.000Z,33
2022-11-24T07:37:12.000Z,32.9
2022-11-24T07:38:28.000Z,30.9
2022-11-24T07:39:44.710Z,31.2
2022-11-24T07:41:00.000Z,30.8
2022-11-24T07:42:16.019Z,30.2
2022-11-24T07:43:31.000Z,27.9
2022-11-24T07:44:48.306Z,29.9
2022-11-24T07:46:04.000Z,30.9
2022-11-24T07:47:20.000Z,29.1
2022-11-24T07:48:36.000Z,31.3
2022-11-24T07:49:52.000Z,31.3
2022-11-24T07:51:08.000Z,31.7
2022-11-24T07:52:24.000Z,29.1
2022-11-24T07:53:41.000Z,30.9
2022-11-24T07:54:57.000Z,29.8
2022-11-24T07:56:13.000Z,30.7
2022-11-24T07:57:29.751Z,31.3
2022-11-24T07:58:44.000Z,30
2022-11-24T08:00:01.061Z,29.6
2022-11-24T08:01:17.220Z,30.9
2022-11-24T08:02:33.365Z,31.3
2022-11-24T08:03:49.000Z,29.3
2022-11-24T08:05:05.000Z,30.4
2022-11-24T08:06:21.000Z,29.4
2022-11-24T08:07:37.000Z,29.7
2022-11-24T08:08:53.000Z,30.3
2022-11-24T08:10:09.000Z,29.3
2022-11-24T08:11:26.000Z,30
2022-11-24T08:12:42.000Z,29.4
2022-11-24T08:13:58.660Z,29.2
2022-11-24T08:15:13.819Z,30.3
2022-11-24T08:16:29.000Z,29.1
2022-11-24T08:17:45.000Z,30.2
2022-11-24T08:19:02.263Z,30.3
2022-11-24T08:20:18.000Z,29.9
2022-11-24T08:21:34.000Z,29.4
2022-11-24T08:22:50.702Z,29.5
2022-11-24T08:24:06.000Z,28.8
2022-11-24T08:25:22.000Z,29.6
2022-11-24T08:26:39.132Z,29.9
2022-11-24T08:27:55.000Z,29
2022-11-24T08:29:11.000Z,27.7
2022-11-24T08:30:27.000Z,28.7
2022-11-24T08:31:42.000Z,28.5
2022-11-24T08:32:58.000Z,29.8
2022-11-24T08:34:14.000Z,27.9
2022-11-24T08:35:30.000Z,27.8
2022-11-24T08:36:47.000Z,28.1
2022-11-24T08:38:03.000Z,27
2022-11-24T08:39:19.000Z,27.3
2022-11-24T08:40:35.000Z,26.2
2022-11-24T08:41:51.000Z,26.4
2022-11-24T08:43:08.040Z,25.6
2022-11-24T08:44:23.000Z,28.4
2022-11-24T08:45:40.326Z,27.5
2022-11-24T08:46:56.000Z,27.1
2022-11-24T08:48:11.644Z,27.3
2022-11-24T08:49:27.781Z,26.5
2022-11-24T08:50:43.000Z,26.4
2022-11-24T08:51:59.000Z,28.6
2022-11-24T08:53:15.000Z,29.7
2022-11-24T08:54:32.000Z,27.5
2022-11-24T08:55:48.000Z,28.3
2022-11-24T08:57:04.000Z,26.5
2022-11-24T08:58:20.000Z,26.7
2022-11-24T08:59:36.000Z,25.7
2022-11-24T09:00:52.000Z,26.6
2022-11-24T09:02:09.000Z,26.5
2022-11-24T09:03:25.386Z,26
2022-11-24T09:04:40.551Z,26
2022-11-24T09:05:56.000Z,27.5
2022-11-24T09:07:12.000Z,26.4
2022-11-24T09:08:28.000Z,27.7
2022-11-24T09:09:44.000Z,25.8
2022-11-24T09:11:01.000Z,26.7
2022-11-24T09:12:17.414Z,27.7
2022-11-24T09:13:33.000Z,24.8
2022-11-24T09:14:49.000Z,25.6
2022-11-24T09:16:05.000Z,26.8
2022-11-24T09:17:21.000Z,25.8
2022-11-24T09:18:38.143Z,25.7
2022-11-24T09:19:54.000Z,23.7
2022-11-24T09:21:09.000Z,26
2022-11-24T09:22:25.000Z,26.8
2022-11-24T09:23:41.000Z,25.1
2022-11-24T09:24:57.000Z,26.7
2022-11-24T09:26:13.000Z,25.2
2022-11-24T09:27:30.187Z,26.5
2022-11-24T09:28:46.000Z,25.9
2022-11-24T09:30:02.000Z,26.1
2022-11-24T09:31:18.000Z,27.5
2022-11-24T09:32:34.771Z,26.2
2022-11-24T09:33:50.919Z,26.8
2022-11-24T09:35:06.000Z,26.7
2022-11-24T09:36:22.000Z,26.4
2022-11-24T09:37:38.000Z,28.4
2022-11-24T09:38:54.000Z,26.6
2022-11-24T09:40:10.000Z,27.2
2022-11-24T09:41:26.000Z,25.3
2022-11-24T09:42:42.943Z,25.1
2022-11-24T09:43:57.000Z,26.1
2022-11-24T09:45:14.000Z,26.6
2022-11-24T09:46:30.000Z,25
2022-11-24T09:47:46.000Z,25.1
2022-11-24T09:49:02.000Z,25.9
2022-11-24T09:50:18.832Z,26.6
2022-11-24T09:51:34.000Z,25.3
2022-11-24T09:52:50.000Z,25.6
2022-11-24T09:54:07.000Z,26
2022-11-24T09:55:23.000Z,25.3
2022-11-24T09:56:39.562Z,25.7
2022-11-24T09:57:55.000Z,23.7
2022-11-24T09:59:11.000Z,24.2
2022-11-24T10:00:27.012Z,25.7
2022-11-24T10:01:42.000Z,25.4
2022-11-24T10:02:59.000Z,24.6
2022-11-24T10:04:15.000Z,26.3
2022-11-24T10:05:31.000Z,25
2022-11-24T10:06:47.000Z,24.5
2022-11-24T10:08:03.000Z,24.6
2022-11-24T10:09:19.000Z,25.5
2022-11-24T10:10:35.000Z,25.5
2022-11-24T10:11:52.000Z,26.7
2022-11-24T10:13:08.466Z,25.2
2022-11-24T10:14:24.000Z,25.9
2022-11-24T10:15:40.000Z,26.3
2022-11-24T10:16:55.000Z,24.9
2022-11-24T10:18:12.079Z,24.5
2022-11-24T10:19:27.000Z,25.7
2022-11-24T10:20:44.000Z,23.7
2022-11-24T10:22:00.512Z,24
2022-11-24T10:23:16.647Z,25.6
2022-11-24T10:24:32.000Z,23.1
2022-11-24T10:25:48.000Z,23.5
2022-11-24T10:27:04.000Z,23.6
2022-11-24T10:28:21.230Z,23.4
2022-11-24T10:29:37.000Z,23
2022-11-24T10:30:53.517Z,24.5
2022-11-24T10:32:09.000Z,24.9
2022-11-24T10:33:24.000Z,24.8
2022-11-24T10:34:40.000Z,24.9
2022-11-24T10:35:56.000Z,25.4
2022-11-24T10:37:13.000Z,23.8
2022-11-24T10:38:29.000Z,24.2
2022-11-24T10:39:45.000Z,25.2
2022-11-24T10:41:01.000Z,24
2022-11-24T10:42:17.000Z,25.1
2022-11-24T10:43:33.000Z,24.5
2022-11-24T10:44:49.000Z,24.4
2022-11-24T10:46:06.000Z,24.7
2022-11-24T10:47:22.433Z,24.6
2022-11-24T10:48:38.000Z,25.5
2022-11-24T10:49:53.742Z,24.6
2022-11-24T10:51:09.873Z,24.9
2022-11-24T10:52:26.029Z,24
2022-11-24T10:53:41.000Z,21.7
2022-11-24T10:54:58.000Z,24.5
2022-11-24T10:56:14.000Z,22
2022-11-24T10:57:30.607Z,21.7
2022-11-24T10:58:46.000Z,22.2
2022-11-24T11:00:02.899Z,23.7
2022-11-24T11:01:19.053Z,23.9
2022-11-24T11:02:35.194Z,23.8
2022-11-24T11:03:51.343Z,24.2
2022-11-24T11:05:07.000Z,22.1
2022-11-24T11:06:22.637Z,22.3
2022-11-24T11:07:38.000Z,24.4
2022-11-24T11:08:54.000Z,23.3
2022-11-24T11:10:10.000Z,21.3
2022-11-24T11:11:26.000Z,21.5
2022-11-24T11:12:43.000Z,22.8
2022-11-24T11:13:59.000Z,24
2022-11-24T11:15:15.000Z,22.2
2022-11-24T11:16:31.000Z,21.9
2022-11-24T11:17:47.000Z,23.5
2022-11-24T11:19:03.000Z,23.2
2022-11-24T11:20:20.000Z,23.2
2022-11-24T11:21:36.000Z,22.7
2022-11-24T11:22:51.000Z,22
2022-11-24T11:24:07.697Z,22.3
2022-11-24T11:25:23.000Z,21.6
2022-11-24T11:26:39.986Z,21.4
2022-11-24T11:27:55.000Z,20.2
2022-11-24T11:29:12.000Z,20.1
2022-11-24T11:30:28.000Z,20.6
2022-11-24T11:31:44.579Z,21
2022-11-24T11:33:00.726Z,21.4
2022-11-24T11:34:16.000Z,21.8
2022-11-24T11:35:32.000Z,22.6
2022-11-24T11:36:48.000Z,21.6
2022-11-24T11:38:05.000Z,20.4
2022-11-24T11:39:20.000Z,21.5
2022-11-24T11:40:36.000Z,20.6
2022-11-24T11:41:52.000Z,21.6
2022-11-24T11:43:08.890Z,20.2
2022-11-24T11:44:24.000Z,21.1
2022-11-24T11:45:40.000Z,21
2022-11-24T11:46:57.000Z,20
2022-11-24T11:48:13.509Z,20.5
2022-11-24T11:49:29.000Z,19
2022-11-24T11:50:45.000Z,20.5
2022-11-24T11:52:01.000Z,20.5
2022-11-24T11:53:17.000Z,19.4
2022-11-24T11:54:33.000Z,20.6
2022-11-24T11:55:49.369Z,20.2
2022-11-24T11:57:05.000Z,20.2
2022-11-24T11:58:21.000Z,19.8
2022-11-24T11:59:37.000Z,18.7
2022-11-24T12:00:53.000Z,20
2022-11-24T12:02:09.000Z,18.8
2022-11-24T12:03:26.415Z,19.5
2022-11-24T12:04:42.000Z,20.2
2022-11-24T12:05:58.000Z,19.5
2022-11-24T12:07:14.000Z,19.5
2022-11-24T12:08:30.835Z,19.2
2022-11-24T12:09:46.000Z,20
2022-11-24T12:11:02.000Z,19.5
2022-11-24T12:12:18.000Z,18.4
2022-11-24T12:13:34.000Z,19.2
2022-11-24T12:14:50.000Z,18.4
2022-11-24T12:16:06.731Z,20.3
2022-11-24T12:17:22.000Z,21.5
2022-11-24T12:18:38.000Z,20.1
2022-11-24T12:19:54.000Z,20.4
2022-11-24T12:21:11.329Z,20.1
2022-11-24T12:22:27.000Z,18.7
2022-11-24T12:23:43.000Z,19.4
2022-11-24T12:24:59.000Z,17.9
2022-11-24T12:26:15.000Z,18.1
2022-11-24T12:27:32.025Z,19.5
2022-11-24T12:28:47.190Z,18.4
2022-11-24T12:30:03.000Z,20.2
2022-11-24T12:31:19.491Z,20.7
2022-11-24T12:32:35.626Z,20.4
2022-11-24T12:33:51.000Z,20.7
2022-11-24T12:35:07.908Z,18.8
2022-11-24T12:36:23.000Z,19.2
2022-11-24T12:37:39.000Z,18.4
2022-11-24T12:38:56.000Z,17.7
2022-11-24T12:40:12.495Z,19
2022-11-24T12:41:28.000Z,19.7
2022-11-24T12:42:44.780Z,20.7
2022-11-24T12:44:00.000Z,21.3
2022-11-24T12:45:15.000Z,21
2022-11-24T12:46:32.000Z,21.9
2022-11-24T12:47:48.000Z,20.5
2022-11-24T12:49:04.000Z,20.1
2022-11-24T12:50:20.000Z,19.8
2022-11-24T12:51:36.000Z,19.6
2022-11-24T12:52:52.000Z,20.9
2022-11-24T12:54:08.000Z,21.1
2022-11-24T12:55:25.000Z,20.9
2022-11-24T12:56:41.400Z,21.6
2022-11-24T12:57:57.000Z,19.9
2022-11-24T12:59:13.000Z,19.6
2022-11-24T13:00:29.000Z,18.3
2022-11-24T13:01:44.000Z,20.4
2022-11-24T13:03:00.000Z,20.1
2022-11-24T13:04:17.000Z,19.8
2022-11-24T13:05:33.437Z,19.7
2022-11-24T13:06:49.000Z,20.2
2022-11-24T13:08:05.000Z,19.8
2022-11-24T13:09:21.000Z,19.3
2022-11-24T13:10:37.000Z,18.7
2022-11-24T13:11:53.000Z,21.2
2022-11-24T13:13:10.000Z,21.6
2022-11-24T13:14:26.000Z,21.2
2022-11-24T13:15:42.612Z,20.9
2022-11-24T13:16:58.760Z,19.3
2022-11-24T13:18:13.920Z,20
2022-11-24T13:19:29.000Z,20.5
2022-11-24T13:20:45.000Z,21.1
2022-11-24T13:22:02.000Z,22.7
2022-11-24T13:23:18.000Z,21.5
2022-11-24T13:24:34.000Z,22.2
2022-11-24T13:25:50.000Z,21.4
2022-11-24T13:27:06.000Z,22.1
2022-11-24T13:28:22.000Z,21.4
2022-11-24T13:29:39.212Z,20.9
2022-11-24T13:30:55.000Z,21
2022-11-24T13:32:11.000Z,20.8
2022-11-24T13:33:27.000Z,22
2022-11-24T13:34:42.000Z,21.2
2022-11-24T13:35:58.000Z,21.6
2022-11-24T13:37:14.000Z,21
2022-11-24T13:38:31.000Z,21
2022-11-24T13:39:47.000Z,22.1
2022-11-24T13:41:03.000Z,20.9
2022-11-24T13:42:19.000Z,19.9
2022-11-24T13:43:35.000Z,20.2
2022-11-24T13:44:51.000Z,20.1
2022-11-24T13:46:07.000Z,20.9
2022-11-24T13:47:24.301Z,20.3
2022-11-24T13:48:40.000Z,21.2
2022-11-24T13:49:56.000Z,20.9
2022-11-24T13:51:11.000Z,21.9
2022-11-24T13:52:27.000Z,21.8
2022-11-24T13:53:43.000Z,22.8
2022-11-24T13:55:00.174Z,22.9
2022-11-24T13:56:16.000Z,22.3
2022-11-24T13:57:32.000Z,23
2022-11-24T13:58:47.000Z,23.8
2022-11-24T14:00:03.788Z,24.3
2022-11-24T14:01:19.948Z,21.6
2022-11-24T14:02:35.000Z,22.3
2022-11-24T14:03:52.223Z,21.6
2022-11-24T14:05:08.387Z,21
2022-11-24T14:06:24.000Z,24
2022-11-24T14:07:40.000Z,25.2
2022-11-24T14:08:56.000Z,25.3
2022-11-24T14:10:12.956Z,25.2
2022-11-24T14:11:28.000Z,25.3
2022-11-24T14:12:45.000Z,24.6
2022-11-24T14:14:01.403Z,25.4
2022-11-24T14:15:16.000Z,25.7
2022-11-24T14:16:32.705Z,27
2022-11-24T14:17:48.000Z,28.9
2022-11-24T14:19:04.000Z,28.9
2022-11-24T14:20:21.145Z,27.5
2022-11-24T14:21:37.000Z,30.3
2022-11-24T14:22:53.000Z,30.5
2022-11-24T14:24:09.588Z,29.8
2022-11-24T14:25:25.000Z,30.8
2022-11-24T14:26:41.000Z,31.5
2022-11-24T14:27:57.000Z,31.6
2022-11-24T14:29:14.172Z,30.9
2022-11-24T14:30:30.000Z,32.4
2022-11-24T14:31:45.000Z,31.9
2022-11-24T14:33:01.000Z,32.3
2022-11-24T14:34:17.000Z,32.3
2022-11-24T14:35:33.000Z,32.1
2022-11-24T14:36:49.000Z,32.4
2022-11-24T14:38:05.000Z,32.8
2022-11-24T14:39:22.000Z,33
2022-11-24T14:40:38.000Z,32.5
2022-11-24T14:41:54.000Z,32.8
2022-11-24T14:43:10.000Z,31.3
2022-11-24T14:44:26.953Z,31.5
2022-11-24T14:45:42.000Z,32.9
2022-11-24T14:46:59.000Z,30.9
2022-11-24T14:48:14.000Z,29.7
2022-11-24T14:49:30.570Z,32.6
2022-11-24T14:50:46.703Z,33.5
2022-11-24T14:52:02.000Z,35.5
2022-11-24T14:53:18.000Z,35.7
2022-11-24T14:54:34.000Z,37.2
2022-11-24T14:55:51.000Z,36.7
2022-11-24T14:57:07.000Z,35
2022-11-24T14:58:23.000Z,35.9
2022-11-24T14:59:39.000Z,35.8
2022-11-24T15:00:55.000Z,35.2
2022-11-24T15:02:11.000Z,34.1
2022-11-24T15:03:28.169Z,32.7
2022-11-24T15:04:43.000Z,32.4
2022-11-24T15:05:59.485Z,33.2
2022-11-24T15:07:15.000Z,33.4
2022-11-24T15:08:31.772Z,33.8
2022-11-24T15:09:47.000Z,33.5
2022-11-24T15:11:03.000Z,33.9
2022-11-24T15:12:19.000Z,35
2022-11-24T15:13:36.000Z,35
2022-11-24T15:14:52.000Z,35.8
2022-11-24T15:16:08.665Z,34.5
2022-11-24T15:17:24.800Z,35.9
2022-11-24T15:18:40.000Z,38.9
2022-11-24T15:19:57.098Z,38.1
2022-11-24T15:21:12.000Z,37.5
2022-11-24T15:22:28.403Z,37.9
2022-11-24T15:23:44.000Z,37.4
2022-11-24T15:25:00.000Z,36.6
2022-11-24T15:26:16.842Z,36.2
2022-11-24T15:27:32.000Z,33.4
2022-11-24T15:28:49.153Z,33.3
2022-11-24T15:30:05.283Z,32.5
2022-11-24T15:31:21.438Z,29.4
2022-11-24T15:32:37.000Z,29.8
2022-11-24T15:33:53.725Z,29.5
2022-11-24T15:35:09.000Z,30.2
2022-11-24T15:36:25.000Z,29.1
2022-11-24T15:37:40.000Z,29.9
2022-11-24T15:38:57.000Z,28.1
2022-11-24T15:40:13.480Z,28.7
2022-11-24T15:41:29.000Z,29.1
2022-11-24T15:42:45.000Z,29.7
2022-11-24T15:44:01.914Z,30
2022-11-24T15:45:17.000Z,28.1
2022-11-24T15:46:33.000Z,28.3
2022-11-24T15:47:50.000Z,28.5
2022-11-24T15:49:06.000Z,28.8
2022-11-24T15:50:22.000Z,27.6
2022-11-24T15:51:38.000Z,27.5
2022-11-24T15:52:54.000Z,27.4
2022-11-24T15:54:09.000Z,26.1
2022-11-24T15:55:26.000Z,27
2022-11-24T15:56:42.000Z,26
2022-11-24T15:57:58.000Z,26.6
2022-11-24T15:59:14.000Z,26.2
2022-11-24T16:00:30.000Z,24
2022-11-24T16:01:46.993Z,23.5
2022-11-24T16:03:02.000Z,21.9
2022-11-24T16:04:19.000Z,21.9
2022-11-24T16:05:35.000Z,23.4
2022-11-24T16:06:51.000Z,21
2022-11-24T16:08:07.000Z,22.6
2022-11-24T16:09:23.864Z,22.7
2022-11-24T16:10:38.000Z,26
2022-11-24T16:11:55.182Z,24
2022-11-24T16:13:11.000Z,24.5
2022-11-24T16:14:27.000Z,25.3
2022-11-24T16:15:43.614Z,25.7
2022-11-24T16:16:59.775Z,24.6
2022-11-24T16:18:15.922Z,25.2
2022-11-24T16:19:32.052Z,24.9
2022-11-24T16:20:47.000Z,23.4
2022-11-24T16:22:04.350Z,23.8
2022-11-24T16:23:20.491Z,23.2
2022-11-24T16:24:36.000Z,23.3
2022-11-24T16:25:52.000Z,23.6
2022-11-24T16:27:07.000Z,24.4
2022-11-24T16:28:23.000Z,24
2022-11-24T16:29:40.239Z,22.7
2022-11-24T16:30:56.000Z,21.2
2022-11-24T16:32:12.000Z,20.3
2022-11-24T16:33:28.000Z,21.9
2022-11-24T16:34:44.831Z,21.6
2022-11-24T16:36:00.000Z,20.2
2022-11-24T16:37:17.119Z,21.4
2022-11-24T16:38:33.000Z,20.7
2022-11-24T16:39:49.000Z,20.7
2022-11-24T16:41:05.000Z,21.5
2022-11-24T16:42:21.000Z,20.3
2022-11-24T16:43:36.000Z,20.4
2022-11-24T16:44:52.000Z,22.6
2022-11-24T16:46:08.000Z,21.9
2022-11-24T16:47:25.309Z,21.1
2022-11-24T16:48:41.000Z,22.4
2022-11-24T16:49:57.000Z,21.8
2022-11-24T16:51:13.000Z,21.5
2022-11-24T16:52:29.000Z,22.1
2022-11-24T16:53:45.000Z,21.3
2022-11-24T16:55:01.000Z,22.2
2022-11-24T16:56:18.000Z,21.7
2022-11-24T16:57:34.000Z,22.7
2022-11-24T16:58:50.650Z,23.9
2022-11-24T17:00:05.799Z,23.8